Gokbel — TCZY4 — position and weather

sailwx.info

Track history (hours):
 
Tides and Currents Weather Stations Pressure Air Temp Water Temp Dewpoint Dewpoint Depression Visibility Wind Speed Wind Dir Waves Ship Positions

Gokbel

Last reported at 2014-Jul-30 11:27 UTC. Time now 2014-Aug-02 00:25 UTC.
Position N 44°39' E 037°54'.

Length 87 m; draft 5.7 m.

MMSI: 271042598.

Date/timePositionNaut miles runAvg speedWind from/ knotsBaromVisibWave heightAir tempDewpointWater temp
2014-Jul-30 11:27N 44°39' E 037°54'  
2014-Jul-25 19:11N 40°59' E 029°00'3 4.2
2014-Jul-25 18:33N 40°57' E 028°60'8 8.2
2014-Jul-25 17:33N 40°53' E 029°09'1 1.3
2014-Jul-25 16:33N 40°52' E 029°11'0 0.0
2014-Jul-25 15:33N 40°52' E 029°11'0 0.0
2014-Jul-25 14:33N 40°52' E 029°11'0 0.0
2014-Jul-25 13:33N 40°52' E 029°11'0 0.0
2014-Jul-25 12:33N 40°52' E 029°11'3 2.9
2014-Jul-25 11:33N 40°50' E 029°09'9 8.8
2014-Jul-25 10:33N 40°45' E 028°59'9 8.9
2014-Jul-25 09:31N 40°40' E 028°49'9 8.8
2014-Jul-25 08:28N 40°31' E 028°45'13 9.3
2014-Jul-25 07:06N 40°26' E 028°60'4 5.6
2014-Jul-25 06:23N 40°25' E 029°05'0 0.0
2014-Jul-25 05:31N 40°25' E 029°05'0 0.0
2014-Jul-25 04:33N 40°25' E 029°05'0 0.0
2014-Jul-25 03:32N 40°25' E 029°05'0 0.0
2014-Jul-25 02:26N 40°25' E 029°05'0 0.0
2014-Jul-25 01:33N 40°25' E 029°05'0 0.0
2014-Jul-25 00:33N 40°25' E 029°05'0 0.0
2014-Jul-24 23:33N 40°25' E 029°05'0 0.0
2014-Jul-24 22:33N 40°25' E 029°05'0 0.0
2014-Jul-24 21:25N 40°25' E 029°05'0 0.0
2014-Jul-24 20:26N 40°25' E 029°05'0 0.0
2014-Jul-24 18:21N 40°25' E 029°05'0 0.0
2014-Jul-24 17:15N 40°25' E 029°05'0 0.0
2014-Jul-24 15:30N 40°25' E 029°05'0 0.0
2014-Jul-24 14:32N 40°25' E 029°05'1 0.7
2014-Jul-24 13:28N 40°26' E 029°05'2 0.3
2014-Jul-24 06:24N 40°26' E 029°03'14 6.2
2014-Jul-24 04:06N 40°36' E 028°49'5 9.4
2014-Jul-24 03:32N 40°39' E 028°54'9 8.9
2014-Jul-24 02:33N 40°41' E 029°05'9 8.9
2014-Jul-24 01:32N 40°44' E 029°17'9 9.1
2014-Jul-24 00:32N 40°45' E 029°29'4 0.1
2014-Jul-22 14:33N 40°44' E 029°24'  
Track history (hours):
 
Tides and Currents Weather Stations Pressure Air Temp Water Temp Dewpoint Dewpoint Depression Visibility Wind Speed Wind Dir Waves Ship Positions

Gokbel

Last reported at 2014-Jul-30 11:27 UTC. Time now 2014-Aug-02 00:25 UTC.
Position N 44°39' E 037°54'.

Length 87 m; draft 5.7 m.

MMSI: 271042598.

Date/timePositionNaut miles runAvg speedWind from/ knotsBaromVisibWave heightAir tempDewpointWater temp
2014-Jul-30 11:27N 44°39' E 037°54'  
2014-Jul-25 19:11N 40°59' E 029°00'3 4.2
2014-Jul-25 18:33N 40°57' E 028°60'8 8.2
2014-Jul-25 17:33N 40°53' E 029°09'1 1.3
2014-Jul-25 16:33N 40°52' E 029°11'0 0.0
2014-Jul-25 15:33N 40°52' E 029°11'0 0.0
2014-Jul-25 14:33N 40°52' E 029°11'0 0.0
2014-Jul-25 13:33N 40°52' E 029°11'0 0.0
2014-Jul-25 12:33N 40°52' E 029°11'3 2.9
2014-Jul-25 11:33N 40°50' E 029°09'9 8.8
2014-Jul-25 10:33N 40°45' E 028°59'9 8.9
2014-Jul-25 09:31N 40°40' E 028°49'9 8.8
2014-Jul-25 08:28N 40°31' E 028°45'13 9.3
2014-Jul-25 07:06N 40°26' E 028°60'4 5.6
2014-Jul-25 06:23N 40°25' E 029°05'0 0.0
2014-Jul-25 05:31N 40°25' E 029°05'0 0.0
2014-Jul-25 04:33N 40°25' E 029°05'0 0.0
2014-Jul-25 03:32N 40°25' E 029°05'0 0.0
2014-Jul-25 02:26N 40°25' E 029°05'0 0.0
2014-Jul-25 01:33N 40°25' E 029°05'0 0.0
2014-Jul-25 00:33N 40°25' E 029°05'0 0.0
2014-Jul-24 23:33N 40°25' E 029°05'0 0.0
2014-Jul-24 22:33N 40°25' E 029°05'0 0.0
2014-Jul-24 21:25N 40°25' E 029°05'0 0.0
2014-Jul-24 20:26N 40°25' E 029°05'0 0.0
2014-Jul-24 18:21N 40°25' E 029°05'0 0.0
2014-Jul-24 17:15N 40°25' E 029°05'0 0.0
2014-Jul-24 15:30N 40°25' E 029°05'0 0.0
2014-Jul-24 14:32N 40°25' E 029°05'1 0.7
2014-Jul-24 13:28N 40°26' E 029°05'2 0.3
2014-Jul-24 06:24N 40°26' E 029°03'14 6.2
2014-Jul-24 04:06N 40°36' E 028°49'5 9.4
2014-Jul-24 03:32N 40°39' E 028°54'9 8.9
2014-Jul-24 02:33N 40°41' E 029°05'9 8.9
2014-Jul-24 01:32N 40°44' E 029°17'9 9.1
2014-Jul-24 00:32N 40°45' E 029°29'4 0.1
2014-Jul-22 14:33N 40°44' E 029°24'  

Dump ship's entire track history